Time;durP1;ratioP1;P1;durP2;ratioP2;P2;SDS_P1;SDS_P2;PMS_P1;PMS_P2;Temp;Humidity;BMP_temperature;BMP_pressure;BME280_temperature;BME280_humidity;BME280_pressure;Samples;Min_cycle;Max_cycle;Signal;HPM_P1;HPM_P2
2023/08/31 00:02:06;;;;;;;6.57;3.47;;;;;;;21.35;59.81;94289.63;4974590;28;20162;-84
2023/08/31 00:04:32;;;;;;;6.97;2.72;;;;;;;21.52;60.29;94319.34;4974277;28;20197;-84
2023/08/31 00:06:57;;;;;;;6.95;2.88;;;;;;;21.48;60.20;94314.84;4973679;28;20201;-84
2023/08/31 00:09:26;;;;;;;7.80;3.30;;;;;;;21.43;60.38;94316.53;4972464;28;20761;-84
2023/08/31 00:11:51;;;;;;;4.25;2.80;;;;;;;21.38;60.55;94319.28;4973585;28;20209;-84
2023/08/31 00:14:17;;;;;;;5.30;2.92;;;;;;;21.42;60.62;94317.63;4973936;28;20694;-84
2023/08/31 00:16:42;;;;;;;7.25;3.03;;;;;;;21.32;60.38;94304.38;4973987;28;20699;-84
2023/08/31 00:19:08;;;;;;;6.07;3.30;;;;;;;21.29;60.41;94306.81;4973882;28;20562;-84
2023/08/31 00:21:33;;;;;;;8.15;4.05;;;;;;;21.33;60.77;94315.88;4974205;28;20162;-84
2023/08/31 00:23:59;;;;;;;7.00;3.72;;;;;;;21.22;61.12;94304.53;4973877;28;20260;-84
2023/08/31 00:26:25;;;;;;;8.38;3.95;;;;;;;21.09;61.24;94284.63;4973806;28;20196;-84
2023/08/31 00:28:50;;;;;;;9.27;3.40;;;;;;;21.29;61.00;94326.38;4974116;28;20162;-84
2023/08/31 00:31:16;;;;;;;4.80;2.70;;;;;;;21.27;60.85;94323.22;4973778;28;20212;-84
2023/08/31 00:33:41;;;;;;;4.60;2.95;;;;;;;21.09;60.69;94313.25;4973060;28;20201;-83
2023/08/31 00:36:07;;;;;;;7.80;3.15;;;;;;;21.18;61.42;94332.19;4972687;28;20162;-84
2023/08/31 00:38:33;;;;;;;5.90;3.38;;;;;;;21.17;61.42;94326.03;4973343;28;20191;-84
2023/08/31 00:40:58;;;;;;;5.22;2.60;;;;;;;21.13;61.34;94333.00;4973444;28;20565;-84
2023/08/31 00:43:23;;;;;;;6.07;2.13;;;;;;;21.04;61.25;94337.41;4973700;28;20216;-84
2023/08/31 00:45:51;;;;;;;4.97;2.00;;;;;;;21.05;61.73;94347.84;4973589;28;20269;-84
2023/08/31 00:48:18;;;;;;;4.78;2.72;;;;;;;21.06;61.71;94335.25;4973437;28;20178;-84
2023/08/31 00:50:47;;;;;;;6.65;2.63;;;;;;;21.09;61.53;94332.00;4972152;28;20174;-84
2023/08/31 00:53:14;;;;;;;7.47;2.75;;;;;;;21.20;61.46;94346.84;4973422;28;20162;-84
2023/08/31 00:55:40;;;;;;;6.60;2.90;;;;;;;21.02;61.25;94302.91;4973574;28;20413;-84
2023/08/31 00:58:09;;;;;;;3.88;2.05;;;;;;;21.26;61.03;94337.69;4973609;28;20642;-84
2023/08/31 01:00:49;;;;;;;4.70;2.17;;;;;;;21.26;61.47;94345.72;4973340;28;20626;-84
2023/08/31 01:03:32;;;;;;;6.03;2.10;;;;;;;21.14;61.59;94317.75;4973471;28;20165;-84
2023/08/31 01:06:41;;;;;;;4.28;2.10;;;;;;;21.27;61.41;94344.63;4973520;28;20186;-84
2023/08/31 01:09:22;;;;;;;6.50;1.88;;;;;;;21.30;61.37;94345.91;4973248;28;20197;-84
2023/08/31 01:12:05;;;;;;;3.55;1.90;;;;;;;21.23;61.54;94327.53;4973387;28;20783;-84
2023/08/31 01:14:46;;;;;;;4.80;2.00;;;;;;;21.28;61.39;94330.13;4973537;28;20158;-84
2023/08/31 01:17:14;;;;;;;3.78;1.90;;;;;;;21.33;61.86;94343.47;4973407;28;20161;-84
2023/08/31 01:19:51;;;;;;;3.65;1.67;;;;;;;21.24;61.92;94326.47;4972706;28;20166;-84
2023/08/31 01:22:32;;;;;;;5.45;1.70;;;;;;;21.42;61.58;94359.66;4969700;28;20316;-84
2023/08/31 01:25:03;;;;;;;2.50;1.60;;;;;;;21.09;62.11;94300.69;4971424;28;20173;-84
2023/08/31 01:27:30;;;;;;;3.55;2.05;;;;;;;21.32;62.05;94333.84;4972990;28;20177;-84
2023/08/31 01:29:56;;;;;;;5.22;2.13;;;;;;;21.37;61.99;94347.13;4973207;28;20162;-84
2023/08/31 01:32:21;;;;;;;5.90;2.05;;;;;;;21.27;62.28;94325.09;4973322;28;20166;-84
2023/08/31 01:34:51;;;;;;;5.10;2.17;;;;;;;21.23;62.15;94326.75;4973235;28;20158;-84
2023/08/31 01:37:55;;;;;;;3.75;2.13;;;;;;;21.25;62.42;94338.75;4971825;28;20162;-84
2023/08/31 01:41:04;;;;;;;7.03;2.80;;;;;;;21.26;63.02;94345.72;4973134;28;20158;-84
2023/08/31 01:43:31;;;;;;;4.28;2.47;;;;;;;21.11;62.64;94332.50;4972574;28;20295;-84
2023/08/31 01:45:58;;;;;;;6.15;2.58;;;;;;;21.16;62.87;94345.03;4972937;28;20193;-84
2023/08/31 01:48:24;;;;;;;4.47;2.45;;;;;;;21.16;63.14;94343.16;4973719;28;20196;-84
2023/08/31 01:50:49;;;;;;;8.55;2.70;;;;;;;21.04;62.94;94326.69;4977078;28;20189;-84
2023/08/31 01:53:14;;;;;;;8.95;2.60;;;;;;;20.80;63.30;94297.34;4976914;28;20653;-84
2023/08/31 01:55:40;;;;;;;7.25;3.03;;;;;;;20.86;63.50;94314.09;4976655;28;20617;-84
2023/08/31 01:58:05;;;;;;;7.90;2.65;;;;;;;20.63;63.41;94295.13;4976623;28;20158;-84
2023/08/31 02:00:34;;;;;;;4.55;2.42;;;;;;;20.89;63.13;94351.78;4975987;28;21113;-84
2023/08/31 02:03:00;;;;;;;6.38;2.17;;;;;;;20.58;62.98;94308.56;4974093;28;20181;-84
2023/08/31 02:05:25;;;;;;;4.40;2.20;;;;;;;20.71;63.46;94344.53;4975725;28;20201;-84
2023/08/31 02:07:51;;;;;;;5.25;2.10;;;;;;;20.68;63.52;94347.78;4976023;28;20181;-84
2023/08/31 02:10:16;;;;;;;7.35;1.90;;;;;;;20.66;63.80;94360.66;4975211;28;20272;-84
2023/08/31 02:12:41;;;;;;;4.07;2.23;;;;;;;20.35;64.60;94365.53;4975655;28;20436;-84
2023/08/31 02:15:07;;;;;;;4.97;2.45;;;;;;;20.29;65.07;94351.41;4976495;28;20637;-83
2023/08/31 02:17:35;;;;;;;4.97;2.53;;;;;;;20.17;65.56;94355.53;4976542;28;20158;-83
2023/08/31 02:20:03;;;;;;;4.85;2.55;;;;;;;19.89;66.57;94368.59;4976317;28;20181;-84
2023/08/31 02:22:34;;;;;;;5.95;2.60;;;;;;;19.68;67.32;94337.00;4974851;28;20425;-83
2023/08/31 02:25:00;;;;;;;5.55;2.38;;;;;;;20.04;66.76;94373.03;4975889;28;20595;-83
2023/08/31 02:27:26;;;;;;;5.13;2.30;;;;;;;19.75;66.50;94348.16;4975727;28;20774;-83
2023/08/31 02:29:51;;;;;;;6.78;2.33;;;;;;;19.94;67.13;94365.91;4975785;28;20180;-84
2023/08/31 02:32:17;;;;;;;8.50;2.80;;;;;;;20.04;66.80;94367.69;4976079;28;20216;-84
2023/08/31 02:34:42;;;;;;;8.43;2.80;;;;;;;19.96;66.77;94353.06;4976041;28;20166;-84
2023/08/31 02:37:07;;;;;;;6.95;2.38;;;;;;;19.95;66.75;94353.34;4975659;28;20258;-83
2023/08/31 02:39:33;;;;;;;8.18;2.70;;;;;;;20.02;66.39;94363.69;4975803;28;20155;-83
2023/08/31 02:41:58;;;;;;;6.47;2.33;;;;;;;19.86;66.82;94347.81;4975998;28;20154;-83
2023/08/31 02:44:24;;;;;;;7.25;2.53;;;;;;;19.98;66.93;94355.44;4975284;28;20174;-84
2023/08/31 02:46:49;;;;;;;7.60;2.78;;;;;;;19.90;66.80;94356.84;4975046;28;20190;-84
2023/08/31 02:49:14;;;;;;;3.67;2.10;;;;;;;19.89;66.99;94359.81;4973827;28;20208;-84
2023/08/31 02:51:40;;;;;;;5.75;2.80;;;;;;;19.92;67.30;94377.94;4975161;28;20170;-84
2023/08/31 02:54:05;;;;;;;3.88;2.75;;;;;;;19.65;66.89;94346.38;4975465;28;20635;-83
2023/08/31 02:56:31;;;;;;;10.43;2.80;;;;;;;19.66;67.51;94372.00;4975346;28;20410;-84
2023/08/31 02:58:56;;;;;;;6.30;2.42;;;;;;;19.61;67.86;94381.94;4975340;28;20169;-84
2023/08/31 03:01:23;;;;;;;7.93;2.75;;;;;;;19.50;67.80;94363.31;4974093;28;20196;-84
2023/08/31 03:03:48;;;;;;;8.07;2.40;;;;;;;19.39;67.71;94334.25;4975529;28;20252;-84
2023/08/31 03:06:15;;;;;;;9.68;2.80;;;;;;;19.57;67.45;94373.66;4973894;28;20600;-84
2023/08/31 03:08:40;;;;;;;7.47;2.80;;;;;;;19.67;67.60;94391.50;4973908;28;20177;-84
2023/08/31 03:11:06;;;;;;;8.93;2.85;;;;;;;19.60;68.14;94391.81;4975313;28;20296;-84
2023/08/31 03:13:32;;;;;;;6.25;3.45;;;;;;;19.56;68.32;94396.91;4975326;28;20164;-84
2023/08/31 03:15:57;;;;;;;4.25;2.28;;;;;;;19.53;68.11;94394.81;4975041;28;20170;-84
2023/08/31 03:18:23;;;;;;;6.53;2.78;;;;;;;19.42;68.16;94373.75;4975016;28;20173;-84
2023/08/31 03:20:49;;;;;;;5.25;2.80;;;;;;;19.38;68.37;94370.84;4974983;28;20169;-84
2023/08/31 03:23:15;;;;;;;5.57;3.15;;;;;;;19.45;68.47;94381.22;4975061;28;20185;-85
2023/08/31 03:25:41;;;;;;;6.30;2.60;;;;;;;19.54;68.03;94392.94;4975332;28;20190;-81
2023/08/31 03:28:06;;;;;;;10.73;2.72;;;;;;;19.57;67.48;94389.69;4974320;28;20212;-81
2023/08/31 03:30:32;;;;;;;5.38;2.50;;;;;;;19.51;67.93;94388.16;4974067;28;20197;-81
2023/08/31 03:32:57;;;;;;;6.97;3.10;;;;;;;19.27;68.33;94357.84;4974170;28;20262;-85
2023/08/31 03:35:26;;;;;;;12.32;3.20;;;;;;;19.40;68.59;94399.94;4974333;28;20180;-85
2023/08/31 03:37:52;;;;;;;4.70;2.80;;;;;;;19.39;68.69;94401.00;4974431;28;20174;-84
2023/08/31 03:40:17;;;;;;;10.45;2.50;;;;;;;19.12;68.13;94372.84;4973918;28;20166;-85
2023/08/31 03:42:43;;;;;;;9.02;2.70;;;;;;;19.22;68.50;94383.47;4974147;28;20245;-85
2023/08/31 03:45:09;;;;;;;7.00;2.90;;;;;;;18.97;68.59;94354.28;4973959;28;20170;-83
2023/08/31 03:47:34;;;;;;;6.55;2.42;;;;;;;19.31;68.68;94410.38;4974362;28;20256;-84
2023/08/31 03:49:59;;;;;;;13.43;3.60;;;;;;;19.02;68.74;94367.59;4974591;28;20162;-85
2023/08/31 03:52:25;;;;;;;5.63;3.28;;;;;;;19.16;68.64;94389.94;4973120;28;20717;-85
2023/08/31 03:54:52;;;;;;;7.90;4.22;;;;;;;19.13;68.53;94401.16;4974571;28;20165;-85
2023/08/31 03:57:18;;;;;;;22.77;10.13;;;;;;;19.16;68.46;94405.16;4974382;28;20414;-85
2023/08/31 03:59:43;;;;;;;17.00;7.97;;;;;;;18.98;68.71;94382.56;4974432;28;20249;-85
2023/08/31 04:02:09;;;;;;;10.77;5.88;;;;;;;19.23;68.83;94417.09;4973676;28;20182;-85
2023/08/31 04:04:34;;;;;;;21.60;10.50;;;;;;;19.32;68.78;94422.66;4972272;28;20173;-85
2023/08/31 04:07:00;;;;;;;32.08;17.77;;;;;;;19.37;69.16;94437.88;4973362;28;20201;-86
2023/08/31 04:09:25;;;;;;;27.67;13.00;;;;;;;19.40;68.60;94438.09;4973967;28;20178;-85
2023/08/31 04:11:50;;;;;;;18.83;7.95;;;;;;;19.40;68.54;94447.97;4972076;28;20264;-85
2023/08/31 04:14:18;;;;;;;12.57;5.95;;;;;;;19.46;67.97;94447.66;4973556;28;20177;-86
2023/08/31 04:16:44;;;;;;;15.18;6.13;;;;;;;19.54;68.03;94459.69;4972862;28;20201;-85
2023/08/31 04:19:09;;;;;;;18.45;8.27;;;;;;;19.44;67.89;94441.84;4970263;28;20711;-85
2023/08/31 04:21:34;;;;;;;15.25;6.00;;;;;;;19.48;67.72;94436.75;4971796;28;20178;-85
2023/08/31 04:24:00;;;;;;;16.05;5.75;;;;;;;19.71;67.91;94470.00;4971663;28;20629;-85
2023/08/31 04:26:25;;;;;;;15.38;7.35;;;;;;;19.65;67.36;94449.72;4973042;28;20185;-85
2023/08/31 04:28:51;;;;;;;22.45;8.07;;;;;;;19.56;67.63;94444.19;4973223;28;20225;-83
2023/08/31 04:31:16;;;;;;;13.45;5.65;;;;;;;19.84;67.11;94472.03;4973738;28;20174;-82
2023/08/31 04:33:41;;;;;;;19.50;6.57;;;;;;;19.77;66.56;94436.84;4974018;28;20162;-82
2023/08/31 04:36:07;;;;;;;23.95;6.78;;;;;;;19.94;67.10;94450.59;4972562;28;20177;-82
2023/08/31 04:38:34;;;;;;;26.48;6.82;;;;;;;20.26;65.92;94474.13;4973877;28;20201;-82
2023/08/31 04:41:00;;;;;;;31.30;8.18;;;;;;;20.38;65.67;94485.28;4973944;28;20592;-82
2023/08/31 04:43:27;;;;;;;36.75;8.77;;;;;;;20.41;65.08;94457.22;4973269;28;20173;-82
2023/08/31 04:45:53;;;;;;;36.22;7.78;;;;;;;20.61;64.96;94462.34;4971948;28;20189;-82
2023/08/31 04:48:18;;;;;;;21.63;6.10;;;;;;;20.99;65.03;94493.53;4970198;28;20595;-83
2023/08/31 04:50:43;;;;;;;8.93;4.50;;;;;;;21.54;63.07;94490.47;4973294;28;20232;-82
2023/08/31 04:53:09;;;;;;;18.48;6.00;;;;;;;22.43;59.93;94496.69;4973764;28;20161;-83
2023/08/31 04:55:34;;;;;;;10.02;4.53;;;;;;;22.88;58.05;94461.06;4973199;28;20173;-82
2023/08/31 04:58:00;;;;;;;12.80;4.82;;;;;;;24.14;55.87;94485.56;4972950;28;20173;-83
2023/08/31 05:00:25;;;;;;;8.32;4.18;;;;;;;25.24;52.71;94493.91;4973100;28;20259;-82
2023/08/31 05:02:50;;;;;;;14.63;4.70;;;;;;;26.14;49.69;94484.25;4973019;28;20162;-83
2023/08/31 05:05:20;;;;;;;11.95;3.85;;;;;;;26.67;47.76;94471.22;4973086;28;20162;-82
2023/08/31 05:07:46;;;;;;;7.18;4.25;;;;;;;27.27;46.02;94489.16;4971618;28;20244;-83
2023/08/31 05:10:11;;;;;;;19.08;4.30;;;;;;;28.03;44.98;94493.69;4973649;28;20177;-82
2023/08/31 05:12:36;;;;;;;30.50;6.38;;;;;;;28.73;42.75;94481.97;4973242;28;20226;-82
2023/08/31 05:15:02;;;;;;;32.95;4.88;;;;;;;29.70;41.48;94513.13;4973249;28;20618;-81
2023/08/31 05:17:28;;;;;;;10.38;4.40;;;;;;;30.44;40.20;94517.34;4973307;28;20189;-82
2023/08/31 05:19:53;;;;;;;8.35;3.45;;;;;;;30.86;38.48;94506.88;4972866;28;20244;-82
2023/08/31 05:22:19;;;;;;;12.73;3.80;;;;;;;31.09;37.81;94505.19;4974810;28;20579;-82
2023/08/31 05:24:44;;;;;;;15.90;4.45;;;;;;;31.44;37.44;94510.75;4976922;28;20249;-82
2023/08/31 05:27:10;;;;;;;18.83;4.70;;;;;;;31.56;36.24;94507.97;4976936;28;20248;-82
2023/08/31 05:29:35;;;;;;;8.55;2.95;;;;;;;31.89;35.79;94495.91;4975471;28;20268;-82
2023/08/31 05:32:00;;;;;;;7.28;2.90;;;;;;;32.65;34.68;94513.53;4976290;28;20173;-82
2023/08/31 05:34:26;;;;;;;5.40;2.75;;;;;;;33.03;33.19;94491.72;4973910;28;20184;-81
2023/08/31 05:36:51;;;;;;;6.70;2.20;;;;;;;33.48;31.87;94501.88;4976260;28;20162;-82
2023/08/31 05:39:17;;;;;;;4.07;2.40;;;;;;;33.61;31.56;94505.22;4976108;28;20693;-82
2023/08/31 05:41:43;;;;;;;6.88;2.67;;;;;;;33.80;31.04;94509.84;4976125;28;20174;-81
2023/08/31 05:44:10;;;;;;;5.97;2.50;;;;;;;34.20;31.07;94506.50;4976444;28;20177;-81
2023/08/31 05:46:35;;;;;;;3.33;1.83;;;;;;;34.16;31.06;94489.28;4976227;28;20237;-82
2023/08/31 05:49:01;;;;;;;12.30;2.40;;;;;;;34.42;30.30;94511.16;4976042;28;20177;-82
2023/08/31 05:51:26;;;;;;;4.70;2.10;;;;;;;34.64;29.67;94507.50;4976421;28;20162;-82
2023/08/31 05:53:52;;;;;;;4.22;2.63;;;;;;;34.71;29.43;94504.06;4976180;28;20587;-82
2023/08/31 05:56:19;;;;;;;6.50;2.20;;;;;;;34.68;29.49;94511.06;4976163;28;20217;-82
2023/08/31 05:58:44;;;;;;;5.85;2.35;;;;;;;34.82;29.92;94505.03;4973988;28;20174;-82
2023/08/31 06:01:10;;;;;;;3.45;2.00;;;;;;;34.91;29.04;94507.47;4974810;28;20182;-82
2023/08/31 06:03:36;;;;;;;6.05;1.90;;;;;;;34.99;29.46;94511.84;4975981;28;20264;-82
2023/08/31 06:06:02;;;;;;;5.22;2.50;;;;;;;35.29;29.22;94520.03;4975864;28;20284;-81
2023/08/31 06:08:30;;;;;;;6.22;2.72;;;;;;;35.44;28.76;94519.78;4975935;28;20170;-81
2023/08/31 06:10:55;;;;;;;5.45;1.88;;;;;;;35.93;27.75;94508.47;4973757;28;20225;-81
2023/08/31 06:13:21;;;;;;;3.67;1.80;;;;;;;36.21;26.98;94516.13;4975724;28;20232;-81
2023/08/31 06:15:46;;;;;;;6.40;2.47;;;;;;;36.46;26.74;94523.69;4975517;28;20645;-81
2023/08/31 06:18:11;;;;;;;6.57;1.80;;;;;;;36.41;27.34;94521.34;4975889;28;20660;-81
2023/08/31 06:20:37;;;;;;;3.22;2.00;;;;;;;36.27;26.78;94531.03;4975742;28;20181;-80
2023/08/31 06:23:03;;;;;;;5.50;1.65;;;;;;;36.01;27.41;94533.19;4975667;28;20549;-81
2023/08/31 06:25:28;;;;;;;6.45;2.00;;;;;;;35.58;28.27;94545.72;4975515;28;20193;-80
2023/08/31 06:27:54;;;;;;;6.68;1.80;;;;;;;35.44;28.79;94543.66;4974376;28;20604;-80
2023/08/31 06:30:20;;;;;;;10.07;2.25;;;;;;;35.25;27.92;94541.88;4975835;28;20170;-81
2023/08/31 06:32:46;;;;;;;6.32;2.30;;;;;;;34.94;28.67;94534.84;4958082;28;20561;-81
2023/08/31 06:35:13;;;;;;;8.02;2.80;;;;;;;34.66;29.43;94534.50;4974823;28;20268;-80
2023/08/31 06:37:39;;;;;;;8.40;2.70;;;;;;;34.36;30.28;94545.44;4972966;28;20174;-81
2023/08/31 06:40:06;;;;;;;4.25;2.35;;;;;;;33.96;31.44;94549.50;4975673;28;20245;-81
2023/08/31 06:42:31;;;;;;;5.78;2.80;;;;;;;33.60;31.85;94547.31;4975915;28;20256;-81
2023/08/31 06:44:57;;;;;;;6.70;2.20;;;;;;;33.52;31.59;94548.34;4975416;28;20321;-81
2023/08/31 06:47:23;;;;;;;3.97;1.90;;;;;;;33.55;31.47;94553.09;4975118;28;20669;-81
2023/08/31 06:49:48;;;;;;;3.80;2.60;;;;;;;33.46;32.07;94549.81;4974714;28;20173;-81
2023/08/31 06:52:14;;;;;;;8.68;3.03;;;;;;;33.07;32.99;94547.13;4974263;28;20256;-81
2023/08/31 06:54:39;;;;;;;11.98;2.42;;;;;;;32.86;33.78;94555.69;4975090;28;20170;-81
2023/08/31 06:57:05;;;;;;;7.10;2.70;;;;;;;32.57;33.83;94537.13;4975294;28;20169;-81
2023/08/31 06:59:30;;;;;;;5.38;2.30;;;;;;;32.57;32.90;94550.78;4975178;28;20690;-80
2023/08/31 07:01:55;;;;;;;12.98;2.47;;;;;;;32.41;33.34;94547.31;4974976;28;20174;-80
2023/08/31 07:04:21;;;;;;;8.00;2.85;;;;;;;32.17;34.56;94553.81;4974396;28;20177;-81
2023/08/31 07:06:46;;;;;;;14.10;3.80;;;;;;;31.92;34.59;94544.19;4974213;28;20687;-81
2023/08/31 07:09:12;;;;;;;6.80;3.10;;;;;;;31.46;35.29;94524.81;4974534;28;20645;-80
2023/08/31 07:11:37;;;;;;;9.20;3.03;;;;;;;31.59;35.73;94539.09;4973483;28;20300;-80
2023/08/31 07:14:03;;;;;;;5.63;2.83;;;;;;;31.58;35.18;94557.38;4974714;28;20641;-81
2023/08/31 07:16:28;;;;;;;6.45;2.13;;;;;;;31.73;35.56;94548.47;4974552;28;20197;-80
2023/08/31 07:18:54;;;;;;;8.95;2.65;;;;;;;31.79;33.51;94544.31;4974047;28;20656;-80
2023/08/31 07:21:19;;;;;;;4.38;1.92;;;;;;;31.90;34.20;94555.47;4973674;28;20166;-80
2023/08/31 07:23:45;;;;;;;7.80;2.90;;;;;;;31.79;33.63;94532.63;4973909;28;20196;-80
2023/08/31 07:26:10;;;;;;;4.47;1.95;;;;;;;31.46;33.83;94552.81;4974007;28;20236;-80
2023/08/31 07:28:35;;;;;;;7.03;2.00;;;;;;;31.25;35.44;94543.31;4974478;28;20629;-80
2023/08/31 07:31:06;;;;;;;16.15;2.80;;;;;;;31.47;34.81;94540.00;4973060;28;20236;-80
2023/08/31 07:33:37;;;;;;;5.40;1.95;;;;;;;31.69;34.00;94565.84;4974119;28;20174;-80
2023/08/31 07:36:03;;;;;;;5.20;1.98;;;;;;;31.98;33.10;94559.94;4973868;28;20633;-80
2023/08/31 07:38:31;;;;;;;2.47;1.90;;;;;;;31.99;32.86;94542.47;4973506;28;20752;-81
2023/08/31 07:40:56;;;;;;;6.28;2.10;;;;;;;32.39;32.25;94564.00;4971730;28;20186;-80
2023/08/31 07:43:22;;;;;;;6.60;1.95;;;;;;;32.59;31.90;94557.44;4973598;28;20340;-80
2023/08/31 07:45:48;;;;;;;4.95;1.70;;;;;;;32.63;31.95;94554.00;4971809;28;20201;-80
2023/08/31 07:48:14;;;;;;;3.40;1.70;;;;;;;32.70;31.42;94556.88;4973321;28;20671;-80
2023/08/31 07:50:43;;;;;;;4.00;1.65;;;;;;;32.90;31.71;94567.47;4971443;28;20272;-80
2023/08/31 07:53:08;;;;;;;4.50;1.63;;;;;;;33.11;31.50;94567.09;4973045;28;20182;-81
2023/08/31 07:55:35;;;;;;;6.85;1.80;;;;;;;32.75;31.02;94562.06;4973294;28;20402;-79
2023/08/31 07:58:04;;;;;;;6.88;1.90;;;;;;;32.89;31.48;94559.63;4973967;28;20245;-81
2023/08/31 08:00:29;;;;;;;9.50;2.22;;;;;;;33.19;31.29;94574.25;4972398;28;20231;-80
2023/08/31 08:02:54;;;;;;;4.03;2.00;;;;;;;33.40;29.86;94578.56;4973558;28;20165;-82
2023/08/31 08:05:20;;;;;;;4.78;1.65;;;;;;;33.30;31.10;94575.25;4973249;28;20264;-82
2023/08/31 08:07:45;;;;;;;2.88;1.80;;;;;;;33.33;30.65;94579.22;4972089;28;20213;-79
2023/08/31 08:10:12;;;;;;;4.00;1.90;;;;;;;33.09;31.18;94579.50;4973730;28;20193;-79
2023/08/31 08:12:45;;;;;;;6.30;1.90;;;;;;;32.64;30.68;94552.84;4973716;28;20222;-79
2023/08/31 08:15:11;;;;;;;6.45;1.95;;;;;;;32.29;32.23;94578.19;4973741;28;20188;-81
2023/08/31 08:17:36;;;;;;;4.47;2.35;;;;;;;31.91;32.99;94553.53;4973147;28;20174;-76
2023/08/31 08:20:03;;;;;;;4.75;2.10;;;;;;;32.03;33.19;94567.84;4969531;28;20221;-78
2023/08/31 08:22:29;;;;;;;8.55;2.58;;;;;;;32.01;32.05;94567.41;4971374;28;20178;-77
2023/08/31 08:24:54;;;;;;;6.90;2.13;;;;;;;32.33;32.54;94564.66;4972587;28;20189;-74
2023/08/31 08:27:20;;;;;;;4.55;2.08;;;;;;;32.53;30.62;94568.97;4972448;28;20795;-76
2023/08/31 08:29:46;;;;;;;5.35;2.72;;;;;;;32.35;31.02;94573.25;4972729;28;20210;-76
2023/08/31 08:32:12;;;;;;;5.07;2.53;;;;;;;32.15;29.70;94564.22;4972467;28;20181;-75
2023/08/31 08:34:38;;;;;;;7.80;3.03;;;;;;;31.82;30.24;94554.53;4972598;28;20188;-77
2023/08/31 08:37:03;;;;;;;6.95;3.00;;;;;;;32.26;30.40;94567.22;4972828;28;20166;-77
2023/08/31 08:39:29;;;;;;;8.10;3.25;;;;;;;32.79;29.84;94571.09;4972675;28;20170;-76
2023/08/31 08:41:58;;;;;;;4.80;3.20;;;;;;;33.16;27.83;94566.78;4972787;28;20185;-76
2023/08/31 08:44:25;;;;;;;4.55;3.40;;;;;;;33.18;27.80;94569.94;4971274;28;20568;-77
2023/08/31 08:46:51;;;;;;;5.28;3.22;;;;;;;33.46;27.34;94571.66;4971033;28;20209;-77
2023/08/31 08:49:18;;;;;;;6.43;3.47;;;;;;;33.60;25.54;94569.97;4970809;28;20656;-78
2023/08/31 08:51:46;;;;;;;4.60;3.40;;;;;;;33.25;25.41;94578.31;4972468;28;20196;-77
2023/08/31 08:54:12;;;;;;;6.82;3.45;;;;;;;32.99;26.17;94578.16;4972337;28;20181;-77
2023/08/31 08:56:38;;;;;;;5.88;3.20;;;;;;;33.16;26.76;94577.69;4969909;28;20165;-77
2023/08/31 08:59:03;;;;;;;7.13;3.10;;;;;;;32.86;25.81;94554.91;4972309;28;20178;-76
2023/08/31 09:01:29;;;;;;;9.27;3.83;;;;;;;32.91;26.25;94566.31;4971731;28;20276;-78
2023/08/31 09:03:57;;;;;;;7.10;3.30;;;;;;;33.10;26.65;94557.31;4970089;28;20661;-79
2023/08/31 09:06:23;;;;;;;7.28;3.45;;;;;;;33.36;26.87;94561.34;4968899;28;20680;-78
2023/08/31 09:08:57;;;;;;;6.68;3.05;;;;;;;33.43;26.88;94545.88;4969058;28;20194;-79
2023/08/31 09:11:24;;;;;;;11.05;3.55;;;;;;;33.69;26.47;94569.72;4969464;28;20233;-78
2023/08/31 09:13:51;;;;;;;4.70;2.60;;;;;;;33.53;26.37;94578.03;4970133;28;20186;-78
2023/08/31 09:16:28;;;;;;;4.05;2.85;;;;;;;33.25;27.20;94572.84;4968727;28;20219;-79
2023/08/31 09:18:53;;;;;;;5.03;3.25;;;;;;;33.10;28.28;94564.72;4970351;28;20181;-79
2023/08/31 09:21:20;;;;;;;3.67;2.67;;;;;;;32.39;27.36;94555.84;4970405;28;20185;-79
2023/08/31 09:23:58;;;;;;;4.30;2.70;;;;;;;31.80;29.22;94553.28;4971745;28;20177;-78
2023/08/31 09:26:27;;;;;;;5.03;3.05;;;;;;;31.52;29.65;94568.88;4972039;28;20200;-80
2023/08/31 09:28:53;;;;;;;5.35;3.30;;;;;;;30.88;30.21;94542.66;4972090;28;20639;-81
2023/08/31 09:31:19;;;;;;;3.97;3.00;;;;;;;31.09;31.13;94578.66;4971796;28;20181;-81
2023/08/31 09:33:53;;;;;;;4.50;2.85;;;;;;;30.95;31.59;94573.59;4969160;28;20321;-80
2023/08/31 09:36:20;;;;;;;4.68;3.13;;;;;;;30.84;31.12;94558.09;4971950;28;20208;-80
2023/08/31 09:38:46;;;;;;;10.18;3.42;;;;;;;30.96;31.37;94552.63;4969190;28;20189;-80
2023/08/31 09:41:11;;;;;;;6.90;3.28;;;;;;;31.03;31.04;94556.31;4970932;28;20201;-80
2023/08/31 09:43:37;;;;;;;8.15;3.20;;;;;;;30.43;31.70;94561.94;4970898;28;20204;-78
2023/08/31 09:46:04;;;;;;;5.45;3.30;;;;;;;30.08;32.11;94561.66;4970971;28;20194;-78
2023/08/31 09:48:30;;;;;;;7.03;3.53;;;;;;;29.86;30.89;94566.38;4971038;28;20181;-79
2023/08/31 09:50:56;;;;;;;6.55;3.45;;;;;;;29.97;31.04;94566.75;4971687;28;20990;-77
2023/08/31 09:53:24;;;;;;;8.57;3.45;;;;;;;30.04;29.18;94560.75;4969481;28;20177;-78
2023/08/31 09:55:51;;;;;;;9.25;3.13;;;;;;;29.76;29.34;94544.31;4971733;28;20212;-78
2023/08/31 09:58:21;;;;;;;7.65;3.47;;;;;;;29.98;30.90;94547.41;4971267;28;20265;-80
2023/08/31 10:00:49;;;;;;;11.73;3.97;;;;;;;30.43;29.47;94561.94;4970448;28;20182;-79
2023/08/31 10:03:15;;;;;;;6.93;3.30;;;;;;;30.60;29.07;94561.72;4969771;28;20185;-79
2023/08/31 10:05:42;;;;;;;5.32;3.60;;;;;;;30.85;28.54;94565.91;4972212;28;20236;-79
2023/08/31 10:08:08;;;;;;;7.53;3.58;;;;;;;30.92;27.71;94557.97;4971517;28;20174;-79
2023/08/31 10:10:35;;;;;;;6.60;3.90;;;;;;;31.05;27.78;94550.50;4973212;28;20178;-80
2023/08/31 10:13:01;;;;;;;9.52;3.72;;;;;;;31.00;26.20;94543.41;4974220;28;20181;-79
2023/08/31 10:15:33;;;;;;;6.45;4.00;;;;;;;30.82;26.82;94550.28;4975014;28;20184;-80
2023/08/31 10:18:00;;;;;;;7.35;3.40;;;;;;;30.65;27.18;94545.16;4973951;28;20228;-80
2023/08/31 10:20:28;;;;;;;5.75;3.05;;;;;;;30.57;27.48;94552.31;4972432;28;20268;-80
2023/08/31 10:22:54;;;;;;;5.40;3.65;;;;;;;30.40;28.71;94552.56;4973397;28;20174;-80
2023/08/31 10:25:20;;;;;;;6.05;3.72;;;;;;;30.53;29.17;94543.25;4974839;28;20737;-80
2023/08/31 10:27:51;;;;;;;5.93;3.53;;;;;;;30.72;28.54;94556.22;4968756;28;20181;-79
2023/08/31 10:30:22;;;;;;;7.50;3.15;;;;;;;30.71;29.11;94563.56;4975519;28;20174;-80
2023/08/31 10:33:10;;;;;;;5.25;3.17;;;;;;;30.60;29.38;94559.00;4975107;28;20185;-78
2023/08/31 10:35:47;;;;;;;7.18;3.60;;;;;;;30.42;29.86;94550.28;4972110;28;20272;-79
2023/08/31 10:38:14;;;;;;;8.75;4.88;;;;;;;30.29;30.70;94557.66;4964782;28;20178;-79
2023/08/31 10:40:39;;;;;;;5.35;3.63;;;;;;;30.27;30.18;94559.16;4975558;28;20216;-78
2023/08/31 10:43:15;;;;;;;5.43;3.20;;;;;;;30.04;30.45;94566.19;4968153;28;20269;-80
2023/08/31 10:45:44;;;;;;;7.05;3.40;;;;;;;29.73;31.51;94505.09;4973995;28;20194;-81
2023/08/31 10:48:10;;;;;;;4.95;3.38;;;;;;;30.08;31.22;94578.75;4974440;28;20202;-80
2023/08/31 10:50:41;;;;;;;5.07;3.20;;;;;;;30.15;31.88;94570.03;4974675;28;20201;-79
2023/08/31 10:53:11;;;;;;;7.35;3.38;;;;;;;30.05;31.05;94565.84;4973784;28;20643;-80
2023/08/31 10:55:53;;;;;;;5.55;3.10;;;;;;;29.77;31.45;94545.91;4974872;28;20169;-80
2023/08/31 10:58:18;;;;;;;4.30;2.78;;;;;;;30.08;32.29;94567.09;4974318;28;20181;-79
2023/08/31 11:00:53;;;;;;;8.18;3.33;;;;;;;30.28;32.04;94560.72;4974737;28;20174;-79
2023/08/31 11:03:19;;;;;;;4.65;2.85;;;;;;;30.48;31.72;94564.41;4973319;28;20260;-79
2023/08/31 11:05:54;;;;;;;5.45;4.55;;;;;;;30.55;31.91;94562.72;4973163;28;20284;-79
2023/08/31 11:08:23;;;;;;;6.50;4.38;;;;;;;30.49;31.70;94561.34;4974229;28;20330;-79
2023/08/31 11:10:49;;;;;;;4.45;3.13;;;;;;;30.57;31.72;94573.25;4974300;28;20229;-79
2023/08/31 11:13:23;;;;;;;4.05;2.90;;;;;;;29.92;31.62;94564.25;4972422;28;20631;-80
2023/08/31 11:15:49;;;;;;;6.03;3.10;;;;;;;30.03;32.25;94576.25;4973755;28;20190;-79
2023/08/31 11:18:17;;;;;;;6.45;3.08;;;;;;;30.02;32.06;94580.91;4966029;28;20176;-80
2023/08/31 11:20:43;;;;;;;4.63;2.83;;;;;;;30.03;31.86;94581.69;4971893;28;20174;-80
2023/08/31 11:23:09;;;;;;;6.18;2.72;;;;;;;30.02;32.31;94578.19;4972506;28;20652;-79
2023/08/31 11:25:35;;;;;;;5.60;2.83;;;;;;;29.93;31.79;94572.03;4973468;28;20288;-80
2023/08/31 11:28:06;;;;;;;6.10;3.30;;;;;;;29.90;31.84;94570.03;4973452;28;20197;-82
2023/08/31 11:30:33;;;;;;;2.78;2.40;;;;;;;29.76;31.71;94574.19;4973225;28;20170;-79
2023/08/31 11:33:16;;;;;;;10.32;2.97;;;;;;;29.72;32.18;94576.00;4968760;28;20193;-79